Weather at Flying K Ranch Airport

Public forecast

Using degrees Fahrenheit for public forecast. Weather courtesy of forecast.io.

Closest aviation weather report (METAR) to Flying K Ranch Airport

Closest report is Portland Hillsboro Airport, 7.0 nm (13.0 km) NNW. Retrieved 2021/06/19 20:53 UTC (44 minutes ago):

KHIO 192053Z VRB03KT 10SM CLR 23/11 A3005 RMK AO2 SLP173 T02330111 58015

Closest aviation forecast (TAF) to Flying K Ranch Airport

Closest forecast is Portland Hillsboro Airport, 7.0 nm (13.0 km) NNW. Retrieved 2021/06/19 18:42 UTC (3 hours ago):

TAF KHIO 191738Z 1918/2018 VRB04KT P6SM SKC FM192000 34006KT P6SM SKC FM200000 31010KT P6SM SKC FM200900 30005KT P6SM SKC